AirNav   Everest Fuels
 
 1269 users online  

94C Gilbert Field Airport
Rio, Wisconsin, USA

GOING TO RIO?


FAA INFORMATION EFFECTIVE 02 JANUARY 2020

Location

FAA Identifier: 94C
Lat/Long: 43-26-59.9470N 089-15-00.4170W
43-26.999117N 089-15.006950W
43.4499853,-89.2501158
(estimated)
Elevation: 925 ft. / 281.9 m (surveyed)
Variation: 00W (1985)
From city: 1 mile W of RIO, WI
Time zone: UTC -6 (UTC -5 during Daylight Saving Time)
Zip code: 53960

Airport Operations

Airport use: Open to the public
Activation date: 08/1963
Control tower: no
ARTCC: CHICAGO CENTER
FSS: GREEN BAY FLIGHT SERVICE STATION
NOTAMs facility: GRB (NOTAM-D service available)
Attendance: UNATNDD
Wind indicator: yes
Segmented circle: no

Airport Communications

CTAF: 122.9
WX ASOS at MSN (19 nm S): PHONE 608-249-0615

Nearby radio navigation aids

VOR radial/distance  VOR name  Freq  Var
MSNr009/18.7MADISON VORTAC108.6003E
DLLr102/23.2DELLS VORTAC117.0003E
LNRr076/39.6LONE ROCK VOR/DME112.8000E

 
NDB name  Hdg/Dist  Freq  Var  ID
JUNEAU274/23.934401WUNU ..- -. ..-
ROCK RIVER307/28.337101WRYV .-. -.-- ...-

Airport Services

Parking: tiedowns
Airframe service: NONE
Powerplant service: NONE
Bottled oxygen: NONE
Bulk oxygen: NONE

Runway Information

Runway 9/27

Dimensions: 1092 x 65 ft. / 333 x 20 m
Surface: turf, in fair condition
Runway edge markings: 09/27 THLDS MKD WITH ORANGE CONES.
RUNWAY 9  RUNWAY 27
Latitude: 43-27.099000N43-27.099000N
Longitude: 089-15.389833W089-15.107333W
Elevation: 940.0 ft.940.0 ft.
Traffic pattern: leftleft
Runway end identifier lights: nono
Obstructions: 64 ft. trees, 900 ft. from runway, 110 ft. left of centerline, 14:1 slope to clear67 ft. trees, 950 ft. from runway, 150 ft. left of centerline, 14:1 slope to clear

Airport Ownership and Management from official FAA records

Ownership: Privately-owned
Owner: RIO AERO CLUB, INC
5019 HWY 116
RIO, WI 53960
Phone 920-992-5290
Manager: TODD ROAT
PO BOX 184
RIO, WI 53960
Phone (608) 515-6938
EMAIL ADDRESS: DON@ADSMECHANICAL.COM (ALL LOWER CASE)

Airport Operational Statistics

Aircraft based on the field: 10
Single engine airplanes: 8
Ultralights: 2
    
Aircraft operations: avg 111/week *
65% local general aviation
34% transient general aviation
<1% military
* for 12-month period ending 15 June 2017

Additional Remarks

CONFIRM WINTER RY CONDITIONS & SNOW REMOVAL CALL 608-220-9386.
FOR CD CTC CHICAGO ARTCC AT 630-906-8921.

Instrument Procedures

There are no published instrument procedures at 94C.

Some nearby airports with instrument procedures:

C47 - Portage Municipal Airport (12 nm NW)
KMSN - Dane County Regional Airport-Truax Field (19 nm S)
87Y - Blackhawk Airfield (21 nm S)
KDLL - Baraboo-Wisconsin Dells Regional Airport (23 nm W)
C29 - Middleton Municipal Airport - Morey Field (24 nm SW)
 
Loc | Ops | Rwys | IFR | FBO | Links
Com | Nav | Svcs | Stats | Notes
Area around 94C (Gilbert Field Airport)
 
Road maps at: MapQuest Bing Google
 
Aerial photo
WARNING: Photo may not be current or correct
Aerial photo of 94C (Gilbert Field Airport)
Photo taken 24-Apr-2018
looking south.

Do you have a better or more recent aerial photo of Gilbert Field Airport that you would like to share? If so, please send us your photo.

 
Sectional chart

 
Airport distance calculator
Flying to Gilbert Field Airport? Find the distance to fly.

From to 94C

Sunrise and sunset
Times for 18-Jan-2020
 Local
(UTC-6)
 Zulu
(UTC)
Morning civil twilight06:5512:55
Sunrise07:2613:26
Sunset16:4922:49
Evening civil twilight17:2023:20

Current date and time
Zulu (UTC)  18-Jan-2020 19:16:12
Local (UTC-6)  18-Jan-2020 13:16:12
 
METAR
KMSN 
19nm S 
181853Z 29008G20KT 10SM -SN OVC014 M01/M04 A2966 RMK AO2 SNB07 SLP054 P0000 T10061039
KDLL 
23nm W 
181855Z AUTO 29014G18KT 10SM OVC013 M02/M04 A2965 RMK AO2 T10251043
KC29 
24nm SW 
181855Z AUTO 28018G25KT 10SM OVC014 00/M03 A2967 RMK AO1 T00001031
KUNU 
24nm E 
181855Z AUTO 26012G19KT 10SM OVC017 M01/M04 A2963 RMK AO2 T10071037
KRYV 
29nm SE 
181855Z AUTO 27014G18KT 10SM OVC017 00/M02 A2963 RMK AO2 T10011021
KC35 
32nm W 
181855Z AUTO 27012G19KT 10SM OVC015 M02/M04 A2967 RMK AO2 T10171040 PWINO
KY50 
36nm N 
181856Z AUTO 27017G21KT 10SM OVC019 M02/M04 A2963 RMK AO2 SLP039 T10171044 FZRANO $
KFLD 
38nm NE 
181853Z AUTO 28016G24KT 10SM OVC021 01/M04 A2959 RMK AO2 PK WND 29027/1815 SLP027 T00061044
TAF
KMSN 
19nm S 
181741Z 1818/1918 28013G23KT P6SM OVC017 FM182000 28018G29KT 6SM BLSN VCSH BKN017 OVC022 FM190000 28020G33KT 6SM BLSN VCSH OVC022 FM190900 30014G22KT P6SM BKN025 FM191600 31013G22KT P6SM BKN035
NOTAMs
Click for the latest NOTAMs
NOTAMs are issued by the DoD/FAA and will open in a separate window not controlled by AirNav.

 

 
 

Would you like to see your business listed on this page?

 If your business provides an interesting product or service to pilots, flight crews, aircraft, or users of the Gilbert Field Airport, you should consider listing it here.  To start the listing process, click on the button below
 
Add a business
 

Other Pages about Gilbert Field Airport

Page from the Wisconsin airport directory (PDF)
 
Update a link
 
Copyright © AirNav, LLC. All rights reserved. Privacy Policy  Contact